sensor_id;sensor_type;location;lat;lon;timestamp;P1;durP1;ratioP1;P2;durP2;ratioP2
14251;SDS011;7210;51.502;10.722;2023-03-01T00:01:03;13.77;;;10.63;;
14251;SDS011;7210;51.502;10.722;2023-03-01T00:03:33;12.47;;;9.90;;
14251;SDS011;7210;51.502;10.722;2023-03-01T00:06:01;13.07;;;9.80;;
14251;SDS011;7210;51.502;10.722;2023-03-01T00:08:29;12.30;;;9.40;;
14251;SDS011;7210;51.502;10.722;2023-03-01T00:11:01;12.87;;;9.93;;
14251;SDS011;7210;51.502;10.722;2023-03-01T00:13:31;13.33;;;10.00;;
14251;SDS011;7210;51.502;10.722;2023-03-01T00:16:01;14.80;;;10.23;;
14251;SDS011;7210;51.502;10.722;2023-03-01T00:18:31;12.77;;;9.97;;
14251;SDS011;7210;51.502;10.722;2023-03-01T00:20:58;17.63;;;10.13;;
14251;SDS011;7210;51.502;10.722;2023-03-01T00:23:26;12.37;;;9.53;;
14251;SDS011;7210;51.502;10.722;2023-03-01T00:25:53;14.47;;;9.77;;
14251;SDS011;7210;51.502;10.722;2023-03-01T00:28:21;11.10;;;9.50;;
14251;SDS011;7210;51.502;10.722;2023-03-01T00:30:48;15.07;;;11.00;;
14251;SDS011;7210;51.502;10.722;2023-03-01T00:33:17;14.17;;;10.43;;
14251;SDS011;7210;51.502;10.722;2023-03-01T00:35:44;13.50;;;9.37;;
14251;SDS011;7210;51.502;10.722;2023-03-01T00:38:12;12.87;;;9.53;;
14251;SDS011;7210;51.502;10.722;2023-03-01T00:40:39;12.83;;;9.30;;
14251;SDS011;7210;51.502;10.722;2023-03-01T00:43:06;13.23;;;10.30;;
14251;SDS011;7210;51.502;10.722;2023-03-01T00:45:33;11.93;;;10.00;;
14251;SDS011;7210;51.502;10.722;2023-03-01T00:48:00;13.83;;;11.03;;
14251;SDS011;7210;51.502;10.722;2023-03-01T00:50:29;13.77;;;9.30;;
14251;SDS011;7210;51.502;10.722;2023-03-01T00:52:56;13.47;;;9.90;;
14251;SDS011;7210;51.502;10.722;2023-03-01T00:55:23;13.57;;;10.43;;
14251;SDS011;7210;51.502;10.722;2023-03-01T00:57:51;12.30;;;9.73;;
14251;SDS011;7210;51.502;10.722;2023-03-01T01:00:19;14.13;;;10.27;;
14251;SDS011;7210;51.502;10.722;2023-03-01T01:02:47;15.53;;;10.20;;
14251;SDS011;7210;51.502;10.722;2023-03-01T01:05:15;15.07;;;11.20;;
14251;SDS011;7210;51.502;10.722;2023-03-01T01:07:47;13.60;;;9.93;;
14251;SDS011;7210;51.502;10.722;2023-03-01T01:10:15;14.97;;;10.73;;
14251;SDS011;7210;51.502;10.722;2023-03-01T01:12:47;13.10;;;9.47;;
14251;SDS011;7210;51.502;10.722;2023-03-01T01:15:14;15.63;;;10.83;;
14251;SDS011;7210;51.502;10.722;2023-03-01T01:17:45;16.30;;;10.23;;
14251;SDS011;7210;51.502;10.722;2023-03-01T01:20:13;14.00;;;10.37;;
14251;SDS011;7210;51.502;10.722;2023-03-01T01:22:40;14.50;;;10.20;;
14251;SDS011;7210;51.502;10.722;2023-03-01T01:25:09;13.30;;;9.87;;
14251;SDS011;7210;51.502;10.722;2023-03-01T01:27:36;16.00;;;10.43;;
14251;SDS011;7210;51.502;10.722;2023-03-01T01:30:04;15.10;;;10.83;;
14251;SDS011;7210;51.502;10.722;2023-03-01T01:32:33;12.80;;;10.10;;
14251;SDS011;7210;51.502;10.722;2023-03-01T01:35:01;13.50;;;10.40;;
14251;SDS011;7210;51.502;10.722;2023-03-01T01:37:29;13.43;;;9.90;;
14251;SDS011;7210;51.502;10.722;2023-03-01T01:39:58;14.13;;;10.20;;
14251;SDS011;7210;51.502;10.722;2023-03-01T01:42:27;14.67;;;10.00;;
14251;SDS011;7210;51.502;10.722;2023-03-01T01:48:03;12.90;;;9.37;;
14251;SDS011;7210;51.502;10.722;2023-03-01T01:50:39;15.03;;;10.60;;
14251;SDS011;7210;51.502;10.722;2023-03-01T01:53:10;13.73;;;10.23;;
14251;SDS011;7210;51.502;10.722;2023-03-01T01:55:43;15.33;;;11.43;;
14251;SDS011;7210;51.502;10.722;2023-03-01T01:58:17;16.17;;;10.73;;
14251;SDS011;7210;51.502;10.722;2023-03-01T02:00:48;18.13;;;11.50;;
14251;SDS011;7210;51.502;10.722;2023-03-01T02:03:17;15.13;;;11.03;;
14251;SDS011;7210;51.502;10.722;2023-03-01T02:05:51;13.10;;;10.30;;
14251;SDS011;7210;51.502;10.722;2023-03-01T02:08:26;14.17;;;10.43;;
14251;SDS011;7210;51.502;10.722;2023-03-01T02:10:56;16.30;;;11.20;;
14251;SDS011;7210;51.502;10.722;2023-03-01T02:13:27;14.20;;;10.60;;
14251;SDS011;7210;51.502;10.722;2023-03-01T02:15:56;16.37;;;10.70;;
14251;SDS011;7210;51.502;10.722;2023-03-01T02:18:23;13.97;;;10.53;;
14251;SDS011;7210;51.502;10.722;2023-03-01T02:20:55;15.83;;;10.30;;
14251;SDS011;7210;51.502;10.722;2023-03-01T02:23:36;16.30;;;11.17;;
14251;SDS011;7210;51.502;10.722;2023-03-01T02:26:06;16.20;;;10.67;;
14251;SDS011;7210;51.502;10.722;2023-03-01T02:28:46;15.23;;;11.27;;
14251;SDS011;7210;51.502;10.722;2023-03-01T02:31:17;16.03;;;10.30;;
14251;SDS011;7210;51.502;10.722;2023-03-01T02:34:04;13.70;;;10.80;;
14251;SDS011;7210;51.502;10.722;2023-03-01T02:36:34;14.23;;;10.27;;
14251;SDS011;7210;51.502;10.722;2023-03-01T02:39:05;15.27;;;11.23;;
14251;SDS011;7210;51.502;10.722;2023-03-01T02:41:44;16.27;;;10.47;;
14251;SDS011;7210;51.502;10.722;2023-03-01T02:44:19;14.30;;;10.40;;
14251;SDS011;7210;51.502;10.722;2023-03-01T02:46:50;14.40;;;10.83;;
14251;SDS011;7210;51.502;10.722;2023-03-01T02:49:20;16.33;;;10.93;;
14251;SDS011;7210;51.502;10.722;2023-03-01T02:51:58;14.33;;;10.93;;
14251;SDS011;7210;51.502;10.722;2023-03-01T02:54:44;17.83;;;10.50;;
14251;SDS011;7210;51.502;10.722;2023-03-01T02:57:20;13.10;;;10.17;;
14251;SDS011;7210;51.502;10.722;2023-03-01T02:59:51;12.40;;;10.40;;
14251;SDS011;7210;51.502;10.722;2023-03-01T03:02:22;13.70;;;10.03;;
14251;SDS011;7210;51.502;10.722;2023-03-01T03:05:50;15.10;;;10.47;;
14251;SDS011;7210;51.502;10.722;2023-03-01T03:08:17;14.97;;;10.20;;
14251;SDS011;7210;51.502;10.722;2023-03-01T03:10:49;12.73;;;9.73;;
14251;SDS011;7210;51.502;10.722;2023-03-01T03:16:44;15.90;;;9.80;;
14251;SDS011;7210;51.502;10.722;2023-03-01T03:19:14;12.53;;;10.03;;
14251;SDS011;7210;51.502;10.722;2023-03-01T03:21:42;15.67;;;9.53;;
14251;SDS011;7210;51.502;10.722;2023-03-01T03:24:11;14.17;;;10.57;;
14251;SDS011;7210;51.502;10.722;2023-03-01T03:26:38;12.43;;;10.23;;
14251;SDS011;7210;51.502;10.722;2023-03-01T03:29:05;16.63;;;11.40;;
14251;SDS011;7210;51.502;10.722;2023-03-01T03:31:32;17.33;;;10.87;;
14251;SDS011;7210;51.502;10.722;2023-03-01T03:34:02;13.07;;;10.23;;
14251;SDS011;7210;51.502;10.722;2023-03-01T03:36:29;14.33;;;10.33;;
14251;SDS011;7210;51.502;10.722;2023-03-01T03:38:56;13.33;;;10.00;;
14251;SDS011;7210;51.502;10.722;2023-03-01T03:41:23;14.23;;;10.77;;
14251;SDS011;7210;51.502;10.722;2023-03-01T03:43:50;13.90;;;10.17;;
14251;SDS011;7210;51.502;10.722;2023-03-01T03:46:17;16.37;;;10.77;;
14251;SDS011;7210;51.502;10.722;2023-03-01T03:48:45;11.57;;;9.60;;
14251;SDS011;7210;51.502;10.722;2023-03-01T03:51:14;14.20;;;10.07;;
14251;SDS011;7210;51.502;10.722;2023-03-01T03:53:44;11.77;;;9.80;;
14251;SDS011;7210;51.502;10.722;2023-03-01T03:56:12;13.20;;;9.70;;
14251;SDS011;7210;51.502;10.722;2023-03-01T03:58:39;17.47;;;10.57;;
14251;SDS011;7210;51.502;10.722;2023-03-01T04:01:06;14.60;;;11.03;;
14251;SDS011;7210;51.502;10.722;2023-03-01T04:03:34;12.97;;;9.40;;
14251;SDS011;7210;51.502;10.722;2023-03-01T04:06:01;12.97;;;9.83;;
14251;SDS011;7210;51.502;10.722;2023-03-01T04:08:32;13.73;;;9.87;;
14251;SDS011;7210;51.502;10.722;2023-03-01T04:11:00;14.33;;;9.80;;
14251;SDS011;7210;51.502;10.722;2023-03-01T04:13:50;11.97;;;9.53;;
14251;SDS011;7210;51.502;10.722;2023-03-01T04:16:20;13.43;;;9.83;;
14251;SDS011;7210;51.502;10.722;2023-03-01T04:18:48;15.13;;;9.37;;
14251;SDS011;7210;51.502;10.722;2023-03-01T04:21:15;15.27;;;10.10;;
14251;SDS011;7210;51.502;10.722;2023-03-01T04:23:46;13.33;;;9.83;;
14251;SDS011;7210;51.502;10.722;2023-03-01T04:26:17;14.20;;;9.73;;
14251;SDS011;7210;51.502;10.722;2023-03-01T04:28:51;13.37;;;9.67;;
14251;SDS011;7210;51.502;10.722;2023-03-01T04:31:19;14.67;;;9.80;;
14251;SDS011;7210;51.502;10.722;2023-03-01T04:33:48;14.30;;;9.70;;
14251;SDS011;7210;51.502;10.722;2023-03-01T04:36:18;13.87;;;9.77;;
14251;SDS011;7210;51.502;10.722;2023-03-01T04:38:49;13.47;;;9.70;;
14251;SDS011;7210;51.502;10.722;2023-03-01T04:41:17;13.07;;;9.53;;
14251;SDS011;7210;51.502;10.722;2023-03-01T04:43:46;13.53;;;9.53;;
14251;SDS011;7210;51.502;10.722;2023-03-01T04:46:15;15.30;;;9.47;;
14251;SDS011;7210;51.502;10.722;2023-03-01T04:48:44;14.47;;;9.30;;
14251;SDS011;7210;51.502;10.722;2023-03-01T04:51:12;15.47;;;9.50;;
14251;SDS011;7210;51.502;10.722;2023-03-01T04:53:41;17.20;;;10.33;;
14251;SDS011;7210;51.502;10.722;2023-03-01T04:56:11;15.50;;;9.67;;
14251;SDS011;7210;51.502;10.722;2023-03-01T04:58:39;12.93;;;9.43;;
14251;SDS011;7210;51.502;10.722;2023-03-01T05:01:10;14.87;;;9.87;;
14251;SDS011;7210;51.502;10.722;2023-03-01T05:03:41;14.80;;;9.77;;
14251;SDS011;7210;51.502;10.722;2023-03-01T05:06:10;17.00;;;10.30;;
14251;SDS011;7210;51.502;10.722;2023-03-01T05:08:37;15.97;;;9.90;;
14251;SDS011;7210;51.502;10.722;2023-03-01T05:11:06;15.07;;;9.27;;
14251;SDS011;7210;51.502;10.722;2023-03-01T05:13:35;14.03;;;10.20;;
14251;SDS011;7210;51.502;10.722;2023-03-01T05:16:05;15.13;;;10.97;;
14251;SDS011;7210;51.502;10.722;2023-03-01T05:18:36;16.47;;;10.83;;
14251;SDS011;7210;51.502;10.722;2023-03-01T05:21:05;17.17;;;11.43;;
14251;SDS011;7210;51.502;10.722;2023-03-01T05:23:35;17.67;;;10.63;;
14251;SDS011;7210;51.502;10.722;2023-03-01T05:26:03;15.87;;;10.77;;
14251;SDS011;7210;51.502;10.722;2023-03-01T05:28:32;15.77;;;10.33;;
14251;SDS011;7210;51.502;10.722;2023-03-01T05:31:01;15.57;;;10.40;;
14251;SDS011;7210;51.502;10.722;2023-03-01T05:33:28;13.77;;;9.87;;
14251;SDS011;7210;51.502;10.722;2023-03-01T05:35:59;22.87;;;11.53;;
14251;SDS011;7210;51.502;10.722;2023-03-01T05:38:26;18.27;;;12.07;;
14251;SDS011;7210;51.502;10.722;2023-03-01T05:40:54;21.10;;;12.10;;
14251;SDS011;7210;51.502;10.722;2023-03-01T05:43:21;21.03;;;12.73;;
14251;SDS011;7210;51.502;10.722;2023-03-01T05:45:48;26.13;;;17.13;;
14251;SDS011;7210;51.502;10.722;2023-03-01T05:48:17;20.33;;;13.43;;
14251;SDS011;7210;51.502;10.722;2023-03-01T05:50:45;16.97;;;12.03;;
14251;SDS011;7210;51.502;10.722;2023-03-01T05:53:14;14.53;;;10.53;;
14251;SDS011;7210;51.502;10.722;2023-03-01T05:55:47;16.33;;;11.70;;
14251;SDS011;7210;51.502;10.722;2023-03-01T05:58:17;20.07;;;12.13;;
14251;SDS011;7210;51.502;10.722;2023-03-01T06:00:47;23.47;;;13.97;;
14251;SDS011;7210;51.502;10.722;2023-03-01T06:03:16;19.33;;;11.93;;
14251;SDS011;7210;51.502;10.722;2023-03-01T06:05:45;17.33;;;10.33;;
14251;SDS011;7210;51.502;10.722;2023-03-01T06:08:12;16.47;;;11.57;;
14251;SDS011;7210;51.502;10.722;2023-03-01T06:10:40;13.60;;;10.73;;
14251;SDS011;7210;51.502;10.722;2023-03-01T06:13:07;16.47;;;11.00;;
14251;SDS011;7210;51.502;10.722;2023-03-01T06:15:34;16.60;;;10.53;;
14251;SDS011;7210;51.502;10.722;2023-03-01T06:18:02;18.67;;;9.70;;
14251;SDS011;7210;51.502;10.722;2023-03-01T06:20:31;14.00;;;10.33;;
14251;SDS011;7210;51.502;10.722;2023-03-01T06:22:58;16.53;;;9.73;;
14251;SDS011;7210;51.502;10.722;2023-03-01T06:25:26;16.80;;;9.80;;
14251;SDS011;7210;51.502;10.722;2023-03-01T06:27:54;14.80;;;9.37;;
14251;SDS011;7210;51.502;10.722;2023-03-01T06:30:23;16.87;;;10.70;;
14251;SDS011;7210;51.502;10.722;2023-03-01T06:32:53;17.97;;;11.17;;
14251;SDS011;7210;51.502;10.722;2023-03-01T06:35:26;14.80;;;10.33;;
14251;SDS011;7210;51.502;10.722;2023-03-01T06:37:56;15.60;;;10.23;;
14251;SDS011;7210;51.502;10.722;2023-03-01T06:40:25;17.10;;;10.77;;
14251;SDS011;7210;51.502;10.722;2023-03-01T06:42:53;14.87;;;10.80;;
14251;SDS011;7210;51.502;10.722;2023-03-01T06:45:23;27.70;;;24.80;;
14251;SDS011;7210;51.502;10.722;2023-03-01T06:47:50;17.17;;;10.97;;
14251;SDS011;7210;51.502;10.722;2023-03-01T06:50:18;16.00;;;11.37;;
14251;SDS011;7210;51.502;10.722;2023-03-01T06:52:45;15.20;;;10.50;;
14251;SDS011;7210;51.502;10.722;2023-03-01T06:55:14;15.23;;;9.90;;
14251;SDS011;7210;51.502;10.722;2023-03-01T06:57:41;14.47;;;9.77;;
14251;SDS011;7210;51.502;10.722;2023-03-01T07:00:09;18.17;;;12.57;;
14251;SDS011;7210;51.502;10.722;2023-03-01T07:02:38;26.57;;;13.77;;
14251;SDS011;7210;51.502;10.722;2023-03-01T07:05:06;20.53;;;14.70;;
14251;SDS011;7210;51.502;10.722;2023-03-01T07:07:37;18.00;;;12.97;;
14251;SDS011;7210;51.502;10.722;2023-03-01T07:10:05;17.13;;;12.20;;
14251;SDS011;7210;51.502;10.722;2023-03-01T07:12:35;16.27;;;11.47;;
14251;SDS011;7210;51.502;10.722;2023-03-01T07:15:03;19.23;;;12.43;;
14251;SDS011;7210;51.502;10.722;2023-03-01T07:17:34;20.03;;;12.63;;
14251;SDS011;7210;51.502;10.722;2023-03-01T07:20:01;20.20;;;11.67;;
14251;SDS011;7210;51.502;10.722;2023-03-01T07:22:29;18.43;;;10.60;;
14251;SDS011;7210;51.502;10.722;2023-03-01T07:24:56;15.40;;;11.47;;
14251;SDS011;7210;51.502;10.722;2023-03-01T07:27:23;16.53;;;11.00;;
14251;SDS011;7210;51.502;10.722;2023-03-01T07:29:52;16.03;;;11.87;;
14251;SDS011;7210;51.502;10.722;2023-03-01T07:32:19;16.43;;;11.47;;
14251;SDS011;7210;51.502;10.722;2023-03-01T07:34:46;16.33;;;11.13;;
14251;SDS011;7210;51.502;10.722;2023-03-01T07:37:13;17.83;;;11.13;;
14251;SDS011;7210;51.502;10.722;2023-03-01T07:39:40;38.47;;;26.10;;
14251;SDS011;7210;51.502;10.722;2023-03-01T07:42:08;31.83;;;21.43;;
14251;SDS011;7210;51.502;10.722;2023-03-01T07:44:35;23.70;;;16.87;;
14251;SDS011;7210;51.502;10.722;2023-03-01T07:47:04;29.03;;;19.70;;
14251;SDS011;7210;51.502;10.722;2023-03-01T07:49:31;30.47;;;18.97;;
14251;SDS011;7210;51.502;10.722;2023-03-01T07:51:58;20.97;;;15.27;;
14251;SDS011;7210;51.502;10.722;2023-03-01T07:54:25;19.33;;;13.90;;
14251;SDS011;7210;51.502;10.722;2023-03-01T07:56:52;15.13;;;11.70;;
14251;SDS011;7210;51.502;10.722;2023-03-01T07:59:20;17.10;;;11.90;;
14251;SDS011;7210;51.502;10.722;2023-03-01T08:01:48;16.57;;;11.40;;
14251;SDS011;7210;51.502;10.722;2023-03-01T08:04:17;18.00;;;11.70;;
14251;SDS011;7210;51.502;10.722;2023-03-01T08:06:44;15.37;;;10.97;;
14251;SDS011;7210;51.502;10.722;2023-03-01T08:09:11;15.50;;;11.60;;
14251;SDS011;7210;51.502;10.722;2023-03-01T08:11:39;15.80;;;12.83;;
14251;SDS011;7210;51.502;10.722;2023-03-01T08:14:06;19.13;;;12.70;;
14251;SDS011;7210;51.502;10.722;2023-03-01T08:16:34;24.43;;;18.03;;
14251;SDS011;7210;51.502;10.722;2023-03-01T08:19:03;21.33;;;16.30;;
14251;SDS011;7210;51.502;10.722;2023-03-01T08:21:32;16.73;;;12.47;;
14251;SDS011;7210;51.502;10.722;2023-03-01T08:24:00;17.27;;;13.03;;
14251;SDS011;7210;51.502;10.722;2023-03-01T08:26:28;20.17;;;13.50;;
14251;SDS011;7210;51.502;10.722;2023-03-01T08:28:56;26.43;;;15.97;;
14251;SDS011;7210;51.502;10.722;2023-03-01T08:31:24;19.27;;;12.60;;
14251;SDS011;7210;51.502;10.722;2023-03-01T08:33:55;11.50;;;8.83;;
14251;SDS011;7210;51.502;10.722;2023-03-01T08:36:29;18.00;;;13.07;;
14251;SDS011;7210;51.502;10.722;2023-03-01T08:39:01;15.73;;;11.70;;
14251;SDS011;7210;51.502;10.722;2023-03-01T08:41:28;16.87;;;12.47;;
14251;SDS011;7210;51.502;10.722;2023-03-01T08:43:56;11.90;;;8.93;;
14251;SDS011;7210;51.502;10.722;2023-03-01T08:46:24;14.77;;;10.10;;
14251;SDS011;7210;51.502;10.722;2023-03-01T08:48:53;18.87;;;12.43;;
14251;SDS011;7210;51.502;10.722;2023-03-01T08:51:23;14.73;;;10.87;;
14251;SDS011;7210;51.502;10.722;2023-03-01T08:53:53;13.13;;;10.33;;
14251;SDS011;7210;51.502;10.722;2023-03-01T08:56:20;15.87;;;9.57;;
14251;SDS011;7210;51.502;10.722;2023-03-01T08:58:47;12.20;;;9.63;;
14251;SDS011;7210;51.502;10.722;2023-03-01T09:01:16;13.47;;;9.33;;
14251;SDS011;7210;51.502;10.722;2023-03-01T09:03:45;16.33;;;11.03;;
14251;SDS011;7210;51.502;10.722;2023-03-01T09:06:13;16.17;;;11.23;;
14251;SDS011;7210;51.502;10.722;2023-03-01T09:08:42;14.00;;;10.73;;
14251;SDS011;7210;51.502;10.722;2023-03-01T09:11:14;13.23;;;10.20;;
14251;SDS011;7210;51.502;10.722;2023-03-01T09:13:46;15.57;;;10.95;;
14251;SDS011;7210;51.502;10.722;2023-03-01T09:16:15;18.33;;;11.10;;
14251;SDS011;7210;51.502;10.722;2023-03-01T09:18:48;25.70;;;11.57;;
14251;SDS011;7210;51.502;10.722;2023-03-01T09:21:16;22.07;;;11.70;;
14251;SDS011;7210;51.502;10.722;2023-03-01T09:23:46;18.73;;;12.30;;
14251;SDS011;7210;51.502;10.722;2023-03-01T09:26:17;20.63;;;12.57;;
14251;SDS011;7210;51.502;10.722;2023-03-01T09:28:48;26.23;;;13.47;;
14251;SDS011;7210;51.502;10.722;2023-03-01T09:31:18;19.63;;;13.77;;
14251;SDS011;7210;51.502;10.722;2023-03-01T09:33:47;31.73;;;20.43;;
14251;SDS011;7210;51.502;10.722;2023-03-01T09:36:18;39.77;;;23.97;;
14251;SDS011;7210;51.502;10.722;2023-03-01T09:38:48;15.97;;;11.57;;
14251;SDS011;7210;51.502;10.722;2023-03-01T09:41:22;29.57;;;17.03;;
14251;SDS011;7210;51.502;10.722;2023-03-01T09:44:16;42.80;;;24.53;;
14251;SDS011;7210;51.502;10.722;2023-03-01T09:46:57;51.40;;;27.43;;
14251;SDS011;7210;51.502;10.722;2023-03-01T09:49:27;26.23;;;16.57;;
14251;SDS011;7210;51.502;10.722;2023-03-01T09:51:59;48.87;;;27.33;;
14251;SDS011;7210;51.502;10.722;2023-03-01T09:54:37;31.37;;;21.33;;
14251;SDS011;7210;51.502;10.722;2023-03-01T09:57:10;30.70;;;20.87;;
14251;SDS011;7210;51.502;10.722;2023-03-01T09:59:52;24.73;;;18.37;;
14251;SDS011;7210;51.502;10.722;2023-03-01T10:02:31;18.20;;;13.23;;
14251;SDS011;7210;51.502;10.722;2023-03-01T10:05:14;23.83;;;14.97;;
14251;SDS011;7210;51.502;10.722;2023-03-01T10:08:20;26.03;;;14.70;;
14251;SDS011;7210;51.502;10.722;2023-03-01T10:11:04;29.93;;;17.80;;
14251;SDS011;7210;51.502;10.722;2023-03-01T10:13:47;33.00;;;18.50;;
14251;SDS011;7210;51.502;10.722;2023-03-01T10:16:24;27.93;;;18.17;;
14251;SDS011;7210;51.502;10.722;2023-03-01T10:19:03;34.93;;;22.83;;
14251;SDS011;7210;51.502;10.722;2023-03-01T10:21:32;39.00;;;23.00;;
14251;SDS011;7210;51.502;10.722;2023-03-01T10:24:13;20.57;;;13.93;;
14251;SDS011;7210;51.502;10.722;2023-03-01T10:26:47;26.77;;;15.10;;
14251;SDS011;7210;51.502;10.722;2023-03-01T10:29:23;18.53;;;11.23;;
14251;SDS011;7210;51.502;10.722;2023-03-01T10:31:57;36.57;;;24.10;;
14251;SDS011;7210;51.502;10.722;2023-03-01T10:34:31;23.27;;;15.60;;
14251;SDS011;7210;51.502;10.722;2023-03-01T10:37:01;17.63;;;11.90;;
14251;SDS011;7210;51.502;10.722;2023-03-01T10:39:37;19.03;;;13.67;;
14251;SDS011;7210;51.502;10.722;2023-03-01T10:42:27;20.07;;;13.30;;
14251;SDS011;7210;51.502;10.722;2023-03-01T10:44:58;25.27;;;16.67;;
14251;SDS011;7210;51.502;10.722;2023-03-01T10:48:02;14.70;;;11.43;;
14251;SDS011;7210;51.502;10.722;2023-03-01T10:50:37;17.00;;;11.07;;
14251;SDS011;7210;51.502;10.722;2023-03-01T10:53:10;16.60;;;12.00;;
14251;SDS011;7210;51.502;10.722;2023-03-01T10:55:57;13.03;;;9.30;;
14251;SDS011;7210;51.502;10.722;2023-03-01T10:58:29;13.03;;;9.10;;
14251;SDS011;7210;51.502;10.722;2023-03-01T11:00:59;15.67;;;10.83;;
14251;SDS011;7210;51.502;10.722;2023-03-01T11:03:29;15.47;;;10.67;;
14251;SDS011;7210;51.502;10.722;2023-03-01T11:06:01;12.27;;;8.83;;
14251;SDS011;7210;51.502;10.722;2023-03-01T11:08:36;13.27;;;8.53;;
14251;SDS011;7210;51.502;10.722;2023-03-01T11:11:16;10.67;;;8.00;;
14251;SDS011;7210;51.502;10.722;2023-03-01T11:13:54;9.83;;;7.97;;
14251;SDS011;7210;51.502;10.722;2023-03-01T11:16:26;9.07;;;7.63;;
14251;SDS011;7210;51.502;10.722;2023-03-01T11:19:16;10.20;;;7.80;;
14251;SDS011;7210;51.502;10.722;2023-03-01T11:21:58;11.07;;;7.77;;
14251;SDS011;7210;51.502;10.722;2023-03-01T11:24:31;9.23;;;7.17;;
14251;SDS011;7210;51.502;10.722;2023-03-01T11:27:26;9.37;;;7.40;;
14251;SDS011;7210;51.502;10.722;2023-03-01T11:29:59;10.47;;;7.17;;
14251;SDS011;7210;51.502;10.722;2023-03-01T11:32:36;9.13;;;7.70;;
14251;SDS011;7210;51.502;10.722;2023-03-01T11:35:10;10.53;;;8.57;;
14251;SDS011;7210;51.502;10.722;2023-03-01T11:37:51;12.70;;;8.73;;
14251;SDS011;7210;51.502;10.722;2023-03-01T11:40:29;9.33;;;7.10;;
14251;SDS011;7210;51.502;10.722;2023-03-01T11:43:05;6.53;;;5.53;;
14251;SDS011;7210;51.502;10.722;2023-03-01T11:45:46;7.60;;;6.40;;
14251;SDS011;7210;51.502;10.722;2023-03-01T11:48:42;7.30;;;5.90;;
14251;SDS011;7210;51.502;10.722;2023-03-01T11:51:33;8.30;;;5.97;;
14251;SDS011;7210;51.502;10.722;2023-03-01T11:54:17;9.77;;;5.80;;
14251;SDS011;7210;51.502;10.722;2023-03-01T11:57:11;6.50;;;5.07;;
14251;SDS011;7210;51.502;10.722;2023-03-01T12:00:06;6.97;;;5.43;;
14251;SDS011;7210;51.502;10.722;2023-03-01T12:03:13;6.50;;;5.30;;
14251;SDS011;7210;51.502;10.722;2023-03-01T12:06:11;7.17;;;5.50;;
14251;SDS011;7210;51.502;10.722;2023-03-01T12:09:04;5.67;;;5.07;;
14251;SDS011;7210;51.502;10.722;2023-03-01T12:11:53;7.53;;;5.27;;
14251;SDS011;7210;51.502;10.722;2023-03-01T12:14:42;8.40;;;4.93;;
14251;SDS011;7210;51.502;10.722;2023-03-01T12:17:49;6.30;;;4.70;;
14251;SDS011;7210;51.502;10.722;2023-03-01T12:20:44;6.00;;;4.10;;
14251;SDS011;7210;51.502;10.722;2023-03-01T12:23:43;8.83;;;4.97;;
14251;SDS011;7210;51.502;10.722;2023-03-01T12:26:52;5.03;;;4.23;;
14251;SDS011;7210;51.502;10.722;2023-03-01T12:29:46;6.63;;;4.77;;
14251;SDS011;7210;51.502;10.722;2023-03-01T12:32:41;6.40;;;4.30;;
14251;SDS011;7210;51.502;10.722;2023-03-01T12:35:30;5.50;;;4.40;;
14251;SDS011;7210;51.502;10.722;2023-03-01T12:38:22;6.03;;;4.40;;
14251;SDS011;7210;51.502;10.722;2023-03-01T12:41:17;6.17;;;4.37;;
14251;SDS011;7210;51.502;10.722;2023-03-01T12:44:15;6.10;;;4.47;;
14251;SDS011;7210;51.502;10.722;2023-03-01T12:47:07;5.87;;;4.17;;
14251;SDS011;7210;51.502;10.722;2023-03-01T12:49:53;6.20;;;4.40;;
14251;SDS011;7210;51.502;10.722;2023-03-01T12:52:27;4.93;;;3.70;;
14251;SDS011;7210;51.502;10.722;2023-03-01T12:55:02;4.30;;;3.83;;
14251;SDS011;7210;51.502;10.722;2023-03-01T12:57:56;5.27;;;4.03;;
14251;SDS011;7210;51.502;10.722;2023-03-01T13:00:35;4.80;;;3.90;;
14251;SDS011;7210;51.502;10.722;2023-03-01T13:03:14;5.33;;;4.40;;
14251;SDS011;7210;51.502;10.722;2023-03-01T13:05:59;6.77;;;4.37;;
14251;SDS011;7210;51.502;10.722;2023-03-01T13:08:38;4.20;;;3.50;;
14251;SDS011;7210;51.502;10.722;2023-03-01T13:11:16;4.63;;;3.47;;
14251;SDS011;7210;51.502;10.722;2023-03-01T13:13:48;4.33;;;3.77;;
14251;SDS011;7210;51.502;10.722;2023-03-01T13:16:21;6.07;;;3.30;;
14251;SDS011;7210;51.502;10.722;2023-03-01T13:19:12;4.17;;;3.60;;
14251;SDS011;7210;51.502;10.722;2023-03-01T13:21:43;4.40;;;3.53;;
14251;SDS011;7210;51.502;10.722;2023-03-01T13:24:26;3.70;;;3.40;;
14251;SDS011;7210;51.502;10.722;2023-03-01T13:27:21;5.10;;;3.93;;
14251;SDS011;7210;51.502;10.722;2023-03-01T13:29:56;4.03;;;3.50;;
14251;SDS011;7210;51.502;10.722;2023-03-01T13:32:31;7.23;;;4.20;;
14251;SDS011;7210;51.502;10.722;2023-03-01T13:34:59;44.60;;;29.10;;
14251;SDS011;7210;51.502;10.722;2023-03-01T13:37:33;6.67;;;5.93;;
14251;SDS011;7210;51.502;10.722;2023-03-01T13:40:05;8.67;;;6.47;;
14251;SDS011;7210;51.502;10.722;2023-03-01T13:43:31;4.37;;;3.60;;
14251;SDS011;7210;51.502;10.722;2023-03-01T13:46:07;5.10;;;3.93;;
14251;SDS011;7210;51.502;10.722;2023-03-01T13:48:42;5.10;;;3.83;;
14251;SDS011;7210;51.502;10.722;2023-03-01T13:51:15;7.50;;;4.83;;
14251;SDS011;7210;51.502;10.722;2023-03-01T13:53:51;5.10;;;3.63;;
14251;SDS011;7210;51.502;10.722;2023-03-01T13:56:21;4.27;;;3.50;;
14251;SDS011;7210;51.502;10.722;2023-03-01T13:58:53;6.07;;;3.70;;
14251;SDS011;7210;51.502;10.722;2023-03-01T14:01:29;7.87;;;5.93;;
14251;SDS011;7210;51.502;10.722;2023-03-01T14:03:58;6.77;;;4.17;;
14251;SDS011;7210;51.502;10.722;2023-03-01T14:06:27;6.70;;;5.57;;
14251;SDS011;7210;51.502;10.722;2023-03-01T14:09:01;5.37;;;4.40;;
14251;SDS011;7210;51.502;10.722;2023-03-01T14:14:44;3.77;;;3.13;;
14251;SDS011;7210;51.502;10.722;2023-03-01T14:17:33;5.13;;;3.33;;
14251;SDS011;7210;51.502;10.722;2023-03-01T14:20:17;5.13;;;3.60;;
14251;SDS011;7210;51.502;10.722;2023-03-01T14:22:48;6.47;;;3.87;;
14251;SDS011;7210;51.502;10.722;2023-03-01T14:25:21;4.33;;;3.50;;
14251;SDS011;7210;51.502;10.722;2023-03-01T14:27:56;4.03;;;3.40;;
14251;SDS011;7210;51.502;10.722;2023-03-01T14:30:30;5.13;;;3.83;;
14251;SDS011;7210;51.502;10.722;2023-03-01T14:33:04;6.87;;;4.20;;
14251;SDS011;7210;51.502;10.722;2023-03-01T14:35:52;6.27;;;4.40;;
14251;SDS011;7210;51.502;10.722;2023-03-01T14:38:23;6.97;;;4.50;;
14251;SDS011;7210;51.502;10.722;2023-03-01T14:40:58;8.70;;;5.40;;
14251;SDS011;7210;51.502;10.722;2023-03-01T14:43:29;10.10;;;4.80;;
14251;SDS011;7210;51.502;10.722;2023-03-01T14:45:58;6.77;;;5.10;;
14251;SDS011;7210;51.502;10.722;2023-03-01T14:48:28;5.97;;;4.40;;
14251;SDS011;7210;51.502;10.722;2023-03-01T14:50:59;7.73;;;4.63;;
14251;SDS011;7210;51.502;10.722;2023-03-01T14:53:26;8.47;;;4.17;;
14251;SDS011;7210;51.502;10.722;2023-03-01T14:55:59;7.27;;;4.23;;
14251;SDS011;7210;51.502;10.722;2023-03-01T14:58:28;4.97;;;4.13;;
14251;SDS011;7210;51.502;10.722;2023-03-01T15:00:59;5.50;;;4.00;;
14251;SDS011;7210;51.502;10.722;2023-03-01T15:03:32;4.77;;;3.67;;
14251;SDS011;7210;51.502;10.722;2023-03-01T15:06:03;6.47;;;3.90;;
14251;SDS011;7210;51.502;10.722;2023-03-01T15:08:33;7.33;;;3.90;;
14251;SDS011;7210;51.502;10.722;2023-03-01T15:11:03;4.73;;;4.07;;
14251;SDS011;7210;51.502;10.722;2023-03-01T15:13:43;4.67;;;4.10;;
14251;SDS011;7210;51.502;10.722;2023-03-01T15:16:11;6.40;;;4.17;;